Other Surface Observations
Issued by NWS Great Falls, MT

Home | Current Version | Previous Version | Text Only | Print | Product List | Glossary On
Versions: 1 2 3 4 5 6 7 8 9 10 11 12 13 14 15 16 17 18 19 20 21 22 23 24 25 26 27 28 29 30 31 32 33 34 35 36 37 38 39 40 41 42 43 44 45 46 47 48 49 50
621
SXUS55 KTFX 250529
OSOTFX
AREA AWOS OBSERVATIONS
NATIONAL WEATHER SERVICE GREAT FALLS MT
1129 PM MDT SAT JUN 24 2017

METAR KPWD 250530Z AUTO 00000KT 10SM 13/02 A3026 RMK PLENTYWOOD
METAR KPO1 250530Z AUTO 12005KT 10SM 13/02 A3028 RMK POPLAR
METAR K1S3 250530Z AUTO 00000KT 10SM 12/01 A3031 RMK FORSYTH
METAR KS71 250530Z AUTO 00000KT 10SM 12/04 A3030 RMK CHINOOK
METAR K79S 250530Z AUTO 9SM 14/06 A3034 RMK FORT BENTON
METAR K38S 250530Z AUTO 33007KT 10SM 17/02 A3035 RMK DEER LODGE
METAR K3U3 250530Z AUTO 00000KT 10SM 14/03 A3033 RMK ANACONDA
METAR K6S5 250530Z AUTO 00000KT 10SM 14/07 A3024 RMK HAMILTON
METAR K88M 250530Z AUTO 10SM 14/06 A3019 RMK EUREKA



USA.gov is the U.S. government's official web portal to all federal, state and local government web resources and services.